sensor_id;sensor_type;location;lat;lon;timestamp;temperature;humidity
78876;DHT22;68253;52.506;5.486;2023-04-01T00:00:59;18.50;59.70
78876;DHT22;68253;52.506;5.486;2023-04-01T00:03:26;18.50;59.70
78876;DHT22;68253;52.506;5.486;2023-04-01T00:05:56;18.50;59.70
78876;DHT22;68253;52.506;5.486;2023-04-01T00:08:23;18.50;59.60
78876;DHT22;68253;52.506;5.486;2023-04-01T00:10:50;18.40;59.60
78876;DHT22;68253;52.506;5.486;2023-04-01T00:13:16;18.40;59.60
78876;DHT22;68253;52.506;5.486;2023-04-01T00:15:43;18.40;59.60
78876;DHT22;68253;52.506;5.486;2023-04-01T00:18:09;18.40;59.60
78876;DHT22;68253;52.506;5.486;2023-04-01T00:20:35;18.40;59.60
78876;DHT22;68253;52.506;5.486;2023-04-01T00:23:02;18.40;59.60
78876;DHT22;68253;52.506;5.486;2023-04-01T00:25:28;18.40;59.60
78876;DHT22;68253;52.506;5.486;2023-04-01T00:27:54;18.40;59.60
78876;DHT22;68253;52.506;5.486;2023-04-01T00:30:21;18.40;59.60
78876;DHT22;68253;52.506;5.486;2023-04-01T00:32:47;18.40;59.60
78876;DHT22;68253;52.506;5.486;2023-04-01T00:35:17;18.40;59.60
78876;DHT22;68253;52.506;5.486;2023-04-01T00:37:43;18.40;59.60
78876;DHT22;68253;52.506;5.486;2023-04-01T00:40:26;18.40;59.50
78876;DHT22;68253;52.506;5.486;2023-04-01T00:42:54;18.40;59.50
78876;DHT22;68253;52.506;5.486;2023-04-01T00:45:38;18.30;59.60
78876;DHT22;68253;52.506;5.486;2023-04-01T00:48:10;18.40;59.50
78876;DHT22;68253;52.506;5.486;2023-04-01T00:50:39;18.30;59.50
78876;DHT22;68253;52.506;5.486;2023-04-01T00:53:07;18.30;59.50
78876;DHT22;68253;52.506;5.486;2023-04-01T00:55:37;18.30;59.50
78876;DHT22;68253;52.506;5.486;2023-04-01T00:58:07;18.30;59.50
78876;DHT22;68253;52.506;5.486;2023-04-01T01:00:35;18.30;59.50
78876;DHT22;68253;52.506;5.486;2023-04-01T01:03:02;18.30;59.50
78876;DHT22;68253;52.506;5.486;2023-04-01T01:08:29;18.40;59.40
78876;DHT22;68253;52.506;5.486;2023-04-01T01:10:57;18.30;59.40
78876;DHT22;68253;52.506;5.486;2023-04-01T01:13:34;18.30;59.40
78876;DHT22;68253;52.506;5.486;2023-04-01T01:16:13;18.30;59.40
78876;DHT22;68253;52.506;5.486;2023-04-01T01:18:48;18.30;59.40
78876;DHT22;68253;52.506;5.486;2023-04-01T01:27:02;18.30;59.40
78876;DHT22;68253;52.506;5.486;2023-04-01T01:32:49;18.30;59.40
78876;DHT22;68253;52.506;5.486;2023-04-01T01:35:22;18.30;59.40
78876;DHT22;68253;52.506;5.486;2023-04-01T01:37:54;18.20;59.40
78876;DHT22;68253;52.506;5.486;2023-04-01T01:40:21;18.20;59.40
78876;DHT22;68253;52.506;5.486;2023-04-01T01:42:53;18.20;59.40
78876;DHT22;68253;52.506;5.486;2023-04-01T01:45:23;18.30;59.40
78876;DHT22;68253;52.506;5.486;2023-04-01T01:47:52;18.30;59.40
78876;DHT22;68253;52.506;5.486;2023-04-01T01:50:19;18.20;59.40
78876;DHT22;68253;52.506;5.486;2023-04-01T01:52:46;18.30;59.40
78876;DHT22;68253;52.506;5.486;2023-04-01T01:57:55;18.30;59.30
78876;DHT22;68253;52.506;5.486;2023-04-01T02:00:22;18.20;59.30
78876;DHT22;68253;52.506;5.486;2023-04-01T02:02:48;18.20;59.40
78876;DHT22;68253;52.506;5.486;2023-04-01T02:05:20;18.20;59.30
78876;DHT22;68253;52.506;5.486;2023-04-01T02:07:52;18.20;59.30
78876;DHT22;68253;52.506;5.486;2023-04-01T02:10:25;18.20;59.30
78876;DHT22;68253;52.506;5.486;2023-04-01T02:12:53;18.20;59.30
78876;DHT22;68253;52.506;5.486;2023-04-01T02:15:24;18.20;59.30
78876;DHT22;68253;52.506;5.486;2023-04-01T02:17:52;18.10;59.40
78876;DHT22;68253;52.506;5.486;2023-04-01T02:20:21;18.20;59.40
78876;DHT22;68253;52.506;5.486;2023-04-01T02:22:50;18.20;59.40
78876;DHT22;68253;52.506;5.486;2023-04-01T02:25:27;18.20;59.30
78876;DHT22;68253;52.506;5.486;2023-04-01T02:27:55;18.20;59.30
78876;DHT22;68253;52.506;5.486;2023-04-01T02:30:23;18.20;59.30
78876;DHT22;68253;52.506;5.486;2023-04-01T02:32:51;18.20;59.30
78876;DHT22;68253;52.506;5.486;2023-04-01T02:35:18;18.20;59.30
78876;DHT22;68253;52.506;5.486;2023-04-01T02:37:46;18.20;59.30
78876;DHT22;68253;52.506;5.486;2023-04-01T02:40:15;18.20;59.30
78876;DHT22;68253;52.506;5.486;2023-04-01T02:42:41;18.20;59.30
78876;DHT22;68253;52.506;5.486;2023-04-01T02:45:08;18.20;59.30
78876;DHT22;68253;52.506;5.486;2023-04-01T02:47:35;18.20;59.30
78876;DHT22;68253;52.506;5.486;2023-04-01T02:50:01;18.20;59.30
78876;DHT22;68253;52.506;5.486;2023-04-01T02:52:28;18.20;59.30
78876;DHT22;68253;52.506;5.486;2023-04-01T02:54:57;18.20;59.20
78876;DHT22;68253;52.506;5.486;2023-04-01T02:57:24;18.20;59.30
78876;DHT22;68253;52.506;5.486;2023-04-01T02:59:50;18.20;59.30
78876;DHT22;68253;52.506;5.486;2023-04-01T03:02:17;18.20;59.20
78876;DHT22;68253;52.506;5.486;2023-04-01T03:04:43;18.20;59.20
78876;DHT22;68253;52.506;5.486;2023-04-01T03:07:10;18.20;59.20
78876;DHT22;68253;52.506;5.486;2023-04-01T03:09:37;18.10;59.20
78876;DHT22;68253;52.506;5.486;2023-04-01T03:12:03;18.10;59.20
78876;DHT22;68253;52.506;5.486;2023-04-01T03:14:33;18.20;59.20
78876;DHT22;68253;52.506;5.486;2023-04-01T03:16:59;18.10;59.20
78876;DHT22;68253;52.506;5.486;2023-04-01T03:19:26;18.10;59.20
78876;DHT22;68253;52.506;5.486;2023-04-01T03:21:52;18.10;59.20
78876;DHT22;68253;52.506;5.486;2023-04-01T03:24:20;18.10;59.20
78876;DHT22;68253;52.506;5.486;2023-04-01T03:26:47;18.10;59.20
78876;DHT22;68253;52.506;5.486;2023-04-01T03:29:13;18.10;59.20
78876;DHT22;68253;52.506;5.486;2023-04-01T03:31:41;18.10;59.20
78876;DHT22;68253;52.506;5.486;2023-04-01T03:34:08;18.10;59.20
78876;DHT22;68253;52.506;5.486;2023-04-01T03:36:34;18.10;59.20
78876;DHT22;68253;52.506;5.486;2023-04-01T03:39:01;18.10;59.20
78876;DHT22;68253;52.506;5.486;2023-04-01T03:41:36;18.10;59.20
78876;DHT22;68253;52.506;5.486;2023-04-01T03:44:04;18.10;59.20
78876;DHT22;68253;52.506;5.486;2023-04-01T03:46:30;18.10;59.20
78876;DHT22;68253;52.506;5.486;2023-04-01T03:48:56;18.10;59.20
78876;DHT22;68253;52.506;5.486;2023-04-01T03:51:23;18.10;59.20
78876;DHT22;68253;52.506;5.486;2023-04-01T03:53:51;18.10;59.20
78876;DHT22;68253;52.506;5.486;2023-04-01T03:56:18;18.10;59.20
78876;DHT22;68253;52.506;5.486;2023-04-01T03:58:44;18.10;59.20
78876;DHT22;68253;52.506;5.486;2023-04-01T04:01:21;18.10;59.20
78876;DHT22;68253;52.506;5.486;2023-04-01T04:03:50;18.10;59.20
78876;DHT22;68253;52.506;5.486;2023-04-01T04:06:18;18.10;59.20
78876;DHT22;68253;52.506;5.486;2023-04-01T04:08:45;18.10;59.10
78876;DHT22;68253;52.506;5.486;2023-04-01T04:11:12;18.10;59.20
78876;DHT22;68253;52.506;5.486;2023-04-01T04:13:42;18.10;59.20
78876;DHT22;68253;52.506;5.486;2023-04-01T04:16:09;18.10;59.20
78876;DHT22;68253;52.506;5.486;2023-04-01T04:18:38;18.10;59.20
78876;DHT22;68253;52.506;5.486;2023-04-01T04:21:04;18.10;59.10
78876;DHT22;68253;52.506;5.486;2023-04-01T04:23:31;18.10;59.10
78876;DHT22;68253;52.506;5.486;2023-04-01T04:26:06;18.10;59.10
78876;DHT22;68253;52.506;5.486;2023-04-01T04:28:33;18.10;59.10
78876;DHT22;68253;52.506;5.486;2023-04-01T04:30:59;18.10;59.20
78876;DHT22;68253;52.506;5.486;2023-04-01T04:33:26;18.00;59.20
78876;DHT22;68253;52.506;5.486;2023-04-01T04:35:55;18.10;59.20
78876;DHT22;68253;52.506;5.486;2023-04-01T04:38:22;18.10;59.10
78876;DHT22;68253;52.506;5.486;2023-04-01T04:40:48;18.10;59.20
78876;DHT22;68253;52.506;5.486;2023-04-01T04:43:16;18.00;59.10
78876;DHT22;68253;52.506;5.486;2023-04-01T04:45:43;18.00;59.10
78876;DHT22;68253;52.506;5.486;2023-04-01T04:48:11;18.10;59.10
78876;DHT22;68253;52.506;5.486;2023-04-01T04:50:42;18.00;59.10
78876;DHT22;68253;52.506;5.486;2023-04-01T04:53:12;18.10;59.20
78876;DHT22;68253;52.506;5.486;2023-04-01T04:55:43;18.10;59.20
78876;DHT22;68253;52.506;5.486;2023-04-01T04:58:21;18.10;59.10
78876;DHT22;68253;52.506;5.486;2023-04-01T05:00:47;18.00;59.10
78876;DHT22;68253;52.506;5.486;2023-04-01T05:03:24;18.00;59.10
78876;DHT22;68253;52.506;5.486;2023-04-01T05:05:53;18.00;59.20
78876;DHT22;68253;52.506;5.486;2023-04-01T05:08:19;18.00;59.10
78876;DHT22;68253;52.506;5.486;2023-04-01T05:10:46;18.00;59.10
78876;DHT22;68253;52.506;5.486;2023-04-01T05:13:13;18.00;59.10
78876;DHT22;68253;52.506;5.486;2023-04-01T05:15:40;18.00;59.20
78876;DHT22;68253;52.506;5.486;2023-04-01T05:18:06;18.00;59.10
78876;DHT22;68253;52.506;5.486;2023-04-01T05:20:33;18.00;59.10
78876;DHT22;68253;52.506;5.486;2023-04-01T05:22:59;18.00;59.10
78876;DHT22;68253;52.506;5.486;2023-04-01T05:25:26;18.00;59.10
78876;DHT22;68253;52.506;5.486;2023-04-01T05:27:52;18.00;59.10
78876;DHT22;68253;52.506;5.486;2023-04-01T05:30:18;18.00;59.10
78876;DHT22;68253;52.506;5.486;2023-04-01T05:32:58;18.00;59.10
78876;DHT22;68253;52.506;5.486;2023-04-01T05:35:24;18.00;59.10
78876;DHT22;68253;52.506;5.486;2023-04-01T05:37:50;18.00;59.10
78876;DHT22;68253;52.506;5.486;2023-04-01T05:40:17;18.00;59.10
78876;DHT22;68253;52.506;5.486;2023-04-01T05:42:43;18.00;59.10
78876;DHT22;68253;52.506;5.486;2023-04-01T05:45:09;18.00;59.10
78876;DHT22;68253;52.506;5.486;2023-04-01T05:48:02;18.00;59.10
78876;DHT22;68253;52.506;5.486;2023-04-01T05:50:32;18.00;59.10
78876;DHT22;68253;52.506;5.486;2023-04-01T05:52:58;18.00;59.10
78876;DHT22;68253;52.506;5.486;2023-04-01T05:55:24;18.00;59.10
78876;DHT22;68253;52.506;5.486;2023-04-01T05:57:50;18.00;59.10
78876;DHT22;68253;52.506;5.486;2023-04-01T06:00:17;18.00;59.10
78876;DHT22;68253;52.506;5.486;2023-04-01T06:02:43;18.00;59.10
78876;DHT22;68253;52.506;5.486;2023-04-01T06:05:19;18.00;59.20
78876;DHT22;68253;52.506;5.486;2023-04-01T06:07:45;18.00;59.10
78876;DHT22;68253;52.506;5.486;2023-04-01T06:10:17;18.00;59.10
78876;DHT22;68253;52.506;5.486;2023-04-01T06:16:10;18.00;59.10
78876;DHT22;68253;52.506;5.486;2023-04-01T06:18:45;18.00;59.10
78876;DHT22;68253;52.506;5.486;2023-04-01T06:21:47;18.00;59.20
78876;DHT22;68253;52.506;5.486;2023-04-01T06:33:05;18.00;59.10
78876;DHT22;68253;52.506;5.486;2023-04-01T06:38:39;17.90;59.20
78876;DHT22;68253;52.506;5.486;2023-04-01T06:41:25;18.00;59.10
78876;DHT22;68253;52.506;5.486;2023-04-01T06:47:06;18.00;59.20
78876;DHT22;68253;52.506;5.486;2023-04-01T06:56:10;17.80;59.20
78876;DHT22;68253;52.506;5.486;2023-04-01T07:01:34;17.80;59.30
78876;DHT22;68253;52.506;5.486;2023-04-01T07:04:18;17.80;59.20
78876;DHT22;68253;52.506;5.486;2023-04-01T07:06:58;17.80;59.20
78876;DHT22;68253;52.506;5.486;2023-04-01T07:09:33;17.80;59.20
78876;DHT22;68253;52.506;5.486;2023-04-01T07:15:42;17.80;59.20
78876;DHT22;68253;52.506;5.486;2023-04-01T07:18:16;17.80;59.20
78876;DHT22;68253;52.506;5.486;2023-04-01T07:20:44;17.90;59.20
78876;DHT22;68253;52.506;5.486;2023-04-01T07:23:24;17.90;59.20
78876;DHT22;68253;52.506;5.486;2023-04-01T07:26:14;18.00;59.20
78876;DHT22;68253;52.506;5.486;2023-04-01T07:29:12;17.90;59.20
78876;DHT22;68253;52.506;5.486;2023-04-01T07:37:45;17.90;59.20
78876;DHT22;68253;52.506;5.486;2023-04-01T07:48:18;18.00;59.20
78876;DHT22;68253;52.506;5.486;2023-04-01T07:51:35;18.00;59.20
78876;DHT22;68253;52.506;5.486;2023-04-01T07:54:00;18.00;59.20
78876;DHT22;68253;52.506;5.486;2023-04-01T07:56:53;17.90;59.20
78876;DHT22;68253;52.506;5.486;2023-04-01T08:05:21;17.90;59.20
78876;DHT22;68253;52.506;5.486;2023-04-01T08:08:16;18.00;59.20
78876;DHT22;68253;52.506;5.486;2023-04-01T08:11:07;18.00;59.20
78876;DHT22;68253;52.506;5.486;2023-04-01T08:14:14;18.00;59.20
78876;DHT22;68253;52.506;5.486;2023-04-01T08:17:05;18.10;59.10
78876;DHT22;68253;52.506;5.486;2023-04-01T08:23:11;18.30;59.10
78876;DHT22;68253;52.506;5.486;2023-04-01T08:25:47;18.40;59.10
78876;DHT22;68253;52.506;5.486;2023-04-01T08:28:27;18.50;59.10
78876;DHT22;68253;52.506;5.486;2023-04-01T08:31:06;18.60;59.00
78876;DHT22;68253;52.506;5.486;2023-04-01T08:33:36;18.70;59.00
78876;DHT22;68253;52.506;5.486;2023-04-01T08:36:20;18.70;59.10
78876;DHT22;68253;52.506;5.486;2023-04-01T08:39:18;18.90;59.00
78876;DHT22;68253;52.506;5.486;2023-04-01T08:50:36;19.10;59.00
78876;DHT22;68253;52.506;5.486;2023-04-01T08:53:47;19.30;59.00
78876;DHT22;68253;52.506;5.486;2023-04-01T08:56:23;19.30;59.00
78876;DHT22;68253;52.506;5.486;2023-04-01T09:04:41;19.50;59.00
78876;DHT22;68253;52.506;5.486;2023-04-01T09:13:34;19.70;59.00
78876;DHT22;68253;52.506;5.486;2023-04-01T09:22:22;19.70;59.00
78876;DHT22;68253;52.506;5.486;2023-04-01T09:25:15;19.80;59.00
78876;DHT22;68253;52.506;5.486;2023-04-01T09:36:53;20.00;59.00
78876;DHT22;68253;52.506;5.486;2023-04-01T09:39:38;20.00;59.00
78876;DHT22;68253;52.506;5.486;2023-04-01T09:45:42;20.00;59.00
78876;DHT22;68253;52.506;5.486;2023-04-01T09:48:24;20.10;59.10
78876;DHT22;68253;52.506;5.486;2023-04-01T10:02:37;20.10;59.10
78876;DHT22;68253;52.506;5.486;2023-04-01T10:10:57;20.30;59.10
78876;DHT22;68253;52.506;5.486;2023-04-01T10:25:29;20.30;59.20
78876;DHT22;68253;52.506;5.486;2023-04-01T10:28:48;20.30;59.20
78876;DHT22;68253;52.506;5.486;2023-04-01T10:32:19;20.30;59.20
78876;DHT22;68253;52.506;5.486;2023-04-01T10:37:56;20.20;59.20
78876;DHT22;68253;52.506;5.486;2023-04-01T10:44:19;20.20;59.30
78876;DHT22;68253;52.506;5.486;2023-04-01T10:50:23;20.20;59.40
78876;DHT22;68253;52.506;5.486;2023-04-01T10:56:15;20.20;59.40
78876;DHT22;68253;52.506;5.486;2023-04-01T11:05:41;20.20;59.50
78876;DHT22;68253;52.506;5.486;2023-04-01T11:11:59;20.30;59.40
78876;DHT22;68253;52.506;5.486;2023-04-01T11:14:43;20.30;59.40
78876;DHT22;68253;52.506;5.486;2023-04-01T11:17:32;20.20;59.50
78876;DHT22;68253;52.506;5.486;2023-04-01T11:22:58;20.30;59.40
78876;DHT22;68253;52.506;5.486;2023-04-01T11:28:54;20.30;59.50
78876;DHT22;68253;52.506;5.486;2023-04-01T11:31:34;20.30;59.50
78876;DHT22;68253;52.506;5.486;2023-04-01T11:43:28;20.30;59.50
78876;DHT22;68253;52.506;5.486;2023-04-01T11:58:18;20.30;59.50
78876;DHT22;68253;52.506;5.486;2023-04-01T12:06:43;20.20;59.60
78876;DHT22;68253;52.506;5.486;2023-04-01T12:09:32;20.20;59.60
78876;DHT22;68253;52.506;5.486;2023-04-01T12:15:02;20.30;59.60
78876;DHT22;68253;52.506;5.486;2023-04-01T12:26:23;20.20;59.60
78876;DHT22;68253;52.506;5.486;2023-04-01T12:37:20;20.20;59.60
78876;DHT22;68253;52.506;5.486;2023-04-01T12:40:06;20.30;59.60
78876;DHT22;68253;52.506;5.486;2023-04-01T12:51:22;20.30;59.50
78876;DHT22;68253;52.506;5.486;2023-04-01T12:54:02;20.30;59.50
78876;DHT22;68253;52.506;5.486;2023-04-01T12:57:23;20.30;59.60
78876;DHT22;68253;52.506;5.486;2023-04-01T13:02:36;20.30;59.60
78876;DHT22;68253;52.506;5.486;2023-04-01T13:05:12;20.30;59.60
78876;DHT22;68253;52.506;5.486;2023-04-01T13:07:58;20.30;59.60
78876;DHT22;68253;52.506;5.486;2023-04-01T13:10:38;20.30;59.50
78876;DHT22;68253;52.506;5.486;2023-04-01T13:13:43;20.30;59.50
78876;DHT22;68253;52.506;5.486;2023-04-01T13:16:25;20.30;59.50
78876;DHT22;68253;52.506;5.486;2023-04-01T13:19:04;20.30;59.50
78876;DHT22;68253;52.506;5.486;2023-04-01T13:21:41;20.30;59.50
78876;DHT22;68253;52.506;5.486;2023-04-01T13:24:39;20.30;59.50
78876;DHT22;68253;52.506;5.486;2023-04-01T13:27:18;20.30;59.50
78876;DHT22;68253;52.506;5.486;2023-04-01T13:32:36;20.30;59.50
78876;DHT22;68253;52.506;5.486;2023-04-01T13:35:30;20.30;59.60
78876;DHT22;68253;52.506;5.486;2023-04-01T13:40:47;20.30;59.60
78876;DHT22;68253;52.506;5.486;2023-04-01T14:11:06;20.20;59.60
78876;DHT22;68253;52.506;5.486;2023-04-01T14:27:44;20.10;59.60
78876;DHT22;68253;52.506;5.486;2023-04-01T14:36:12;20.20;59.50
78876;DHT22;68253;52.506;5.486;2023-04-01T14:39:07;20.20;59.50
78876;DHT22;68253;52.506;5.486;2023-04-01T14:49:24;20.10;59.50
78876;DHT22;68253;52.506;5.486;2023-04-01T14:52:27;20.20;59.50
78876;DHT22;68253;52.506;5.486;2023-04-01T14:54:51;20.20;59.40
78876;DHT22;68253;52.506;5.486;2023-04-01T14:57:27;20.10;59.50
78876;DHT22;68253;52.506;5.486;2023-04-01T15:13:31;20.30;59.40
78876;DHT22;68253;52.506;5.486;2023-04-01T15:19:14;20.30;59.50
78876;DHT22;68253;52.506;5.486;2023-04-01T15:21:56;20.30;59.40
78876;DHT22;68253;52.506;5.486;2023-04-01T15:43:49;20.30;59.60
78876;DHT22;68253;52.506;5.486;2023-04-01T15:51:58;20.20;59.70
78876;DHT22;68253;52.506;5.486;2023-04-01T16:07:48;20.30;59.60
78876;DHT22;68253;52.506;5.486;2023-04-01T16:10:25;20.30;59.60
78876;DHT22;68253;52.506;5.486;2023-04-01T16:13:06;20.30;59.60
78876;DHT22;68253;52.506;5.486;2023-04-01T16:16:07;20.30;59.60
78876;DHT22;68253;52.506;5.486;2023-04-01T16:18:52;20.30;59.60
78876;DHT22;68253;52.506;5.486;2023-04-01T16:21:33;20.30;59.60
78876;DHT22;68253;52.506;5.486;2023-04-01T16:32:57;20.30;59.60
78876;DHT22;68253;52.506;5.486;2023-04-01T16:38:23;20.30;59.60
78876;DHT22;68253;52.506;5.486;2023-04-01T16:43:42;20.30;59.70
78876;DHT22;68253;52.506;5.486;2023-04-01T16:46:33;20.30;59.80
78876;DHT22;68253;52.506;5.486;2023-04-01T16:54:14;20.50;60.30
78876;DHT22;68253;52.506;5.486;2023-04-01T16:56:47;20.50;60.60
78876;DHT22;68253;52.506;5.486;2023-04-01T16:59:27;20.50;60.80
78876;DHT22;68253;52.506;5.486;2023-04-01T17:01:56;20.50;61.00
78876;DHT22;68253;52.506;5.486;2023-04-01T17:05:04;20.50;61.00
78876;DHT22;68253;52.506;5.486;2023-04-01T17:10:25;20.50;61.00
78876;DHT22;68253;52.506;5.486;2023-04-01T17:15:46;20.50;61.00
78876;DHT22;68253;52.506;5.486;2023-04-01T17:21:10;20.40;61.00
78876;DHT22;68253;52.506;5.486;2023-04-01T17:23:53;20.50;61.00
78876;DHT22;68253;52.506;5.486;2023-04-01T17:26:42;20.50;61.00
78876;DHT22;68253;52.506;5.486;2023-04-01T17:31:50;20.50;61.00
78876;DHT22;68253;52.506;5.486;2023-04-01T17:37:11;20.40;61.00
78876;DHT22;68253;52.506;5.486;2023-04-01T17:39:53;20.30;61.00
78876;DHT22;68253;52.506;5.486;2023-04-01T17:48:18;20.40;60.90
78876;DHT22;68253;52.506;5.486;2023-04-01T17:53:35;20.40;60.80
78876;DHT22;68253;52.506;5.486;2023-04-01T17:56:17;20.30;60.80
78876;DHT22;68253;52.506;5.486;2023-04-01T17:59:02;20.30;60.80
78876;DHT22;68253;52.506;5.486;2023-04-01T18:07:32;20.40;60.70
78876;DHT22;68253;52.506;5.486;2023-04-01T18:18:35;20.30;60.70
78876;DHT22;68253;52.506;5.486;2023-04-01T18:23:56;20.30;60.70
78876;DHT22;68253;52.506;5.486;2023-04-01T18:26:33;20.30;60.70
78876;DHT22;68253;52.506;5.486;2023-04-01T18:29:35;20.30;60.70
78876;DHT22;68253;52.506;5.486;2023-04-01T18:32:28;20.30;60.60
78876;DHT22;68253;52.506;5.486;2023-04-01T18:35:02;20.30;60.60
78876;DHT22;68253;52.506;5.486;2023-04-01T18:37:54;20.30;60.60
78876;DHT22;68253;52.506;5.486;2023-04-01T18:40:51;20.20;60.70
78876;DHT22;68253;52.506;5.486;2023-04-01T18:43:56;20.30;60.60
78876;DHT22;68253;52.506;5.486;2023-04-01T18:46:48;20.30;60.60
78876;DHT22;68253;52.506;5.486;2023-04-01T18:49:21;20.20;60.60
78876;DHT22;68253;52.506;5.486;2023-04-01T18:52:08;20.20;60.60
78876;DHT22;68253;52.506;5.486;2023-04-01T18:55:17;20.30;60.60
78876;DHT22;68253;52.506;5.486;2023-04-01T18:57:50;20.30;60.50
78876;DHT22;68253;52.506;5.486;2023-04-01T19:00:26;20.30;60.50
78876;DHT22;68253;52.506;5.486;2023-04-01T19:03:00;20.30;60.50
78876;DHT22;68253;52.506;5.486;2023-04-01T19:05:33;20.20;60.50
78876;DHT22;68253;52.506;5.486;2023-04-01T19:08:25;20.30;60.50
78876;DHT22;68253;52.506;5.486;2023-04-01T19:28:07;20.10;60.50
78876;DHT22;68253;52.506;5.486;2023-04-01T19:30:58;20.10;60.50
78876;DHT22;68253;52.506;5.486;2023-04-01T19:33:31;20.10;60.50
78876;DHT22;68253;52.506;5.486;2023-04-01T19:36:17;20.10;60.50
78876;DHT22;68253;52.506;5.486;2023-04-01T19:42:52;20.10;60.40
78876;DHT22;68253;52.506;5.486;2023-04-01T19:48:11;20.10;60.50
78876;DHT22;68253;52.506;5.486;2023-04-01T19:51:02;20.10;60.50
78876;DHT22;68253;52.506;5.486;2023-04-01T19:56:16;20.00;60.50
78876;DHT22;68253;52.506;5.486;2023-04-01T19:58:59;20.10;60.50
78876;DHT22;68253;52.506;5.486;2023-04-01T20:01:41;20.00;60.40
78876;DHT22;68253;52.506;5.486;2023-04-01T20:04:33;20.00;60.50
78876;DHT22;68253;52.506;5.486;2023-04-01T20:10:09;20.00;60.50
78876;DHT22;68253;52.506;5.486;2023-04-01T20:21:24;19.90;60.50
78876;DHT22;68253;52.506;5.486;2023-04-01T20:24:01;19.90;60.60
78876;DHT22;68253;52.506;5.486;2023-04-01T20:26:36;19.80;60.50
78876;DHT22;68253;52.506;5.486;2023-04-01T20:35:20;19.80;60.60
78876;DHT22;68253;52.506;5.486;2023-04-01T20:38:04;19.70;60.60
78876;DHT22;68253;52.506;5.486;2023-04-01T20:40:45;19.70;60.60
78876;DHT22;68253;52.506;5.486;2023-04-01T20:45:58;19.70;60.50
78876;DHT22;68253;52.506;5.486;2023-04-01T20:48:50;19.70;60.60
78876;DHT22;68253;52.506;5.486;2023-04-01T20:51:22;19.60;60.70
78876;DHT22;68253;52.506;5.486;2023-04-01T20:54:14;19.70;60.60
78876;DHT22;68253;52.506;5.486;2023-04-01T21:08:43;19.70;60.60
78876;DHT22;68253;52.506;5.486;2023-04-01T21:14:07;19.70;60.50
78876;DHT22;68253;52.506;5.486;2023-04-01T21:19:37;19.70;60.50
78876;DHT22;68253;52.506;5.486;2023-04-01T21:24:56;19.70;60.50
78876;DHT22;68253;52.506;5.486;2023-04-01T21:27:31;19.70;60.50
78876;DHT22;68253;52.506;5.486;2023-04-01T21:33:23;19.70;60.50
78876;DHT22;68253;52.506;5.486;2023-04-01T21:36:02;19.70;60.40
78876;DHT22;68253;52.506;5.486;2023-04-01T21:38:43;19.70;60.40
78876;DHT22;68253;52.506;5.486;2023-04-01T21:41:12;19.70;60.40
78876;DHT22;68253;52.506;5.486;2023-04-01T21:52:59;19.70;60.40
78876;DHT22;68253;52.506;5.486;2023-04-01T21:55:51;19.70;60.40
78876;DHT22;68253;52.506;5.486;2023-04-01T22:04:16;19.70;60.40
78876;DHT22;68253;52.506;5.486;2023-04-01T22:06:56;19.70;60.30
78876;DHT22;68253;52.506;5.486;2023-04-01T22:09:34;19.70;60.40
78876;DHT22;68253;52.506;5.486;2023-04-01T22:26:15;19.80;60.30
78876;DHT22;68253;52.506;5.486;2023-04-01T22:28:26;19.80;60.30
78876;DHT22;68253;52.506;5.486;2023-04-01T22:31:02;19.70;60.30
78876;DHT22;68253;52.506;5.486;2023-04-01T22:33:44;19.70;60.20
78876;DHT22;68253;52.506;5.486;2023-04-01T22:50:26;19.70;60.10
78876;DHT22;68253;52.506;5.486;2023-04-01T22:53:17;19.60;60.10
78876;DHT22;68253;52.506;5.486;2023-04-01T22:55:49;19.50;60.10
78876;DHT22;68253;52.506;5.486;2023-04-01T22:58:21;19.50;60.10
78876;DHT22;68253;52.506;5.486;2023-04-01T23:00:54;19.50;60.10
78876;DHT22;68253;52.506;5.486;2023-04-01T23:03:29;19.50;60.10
78876;DHT22;68253;52.506;5.486;2023-04-01T23:05:58;19.50;60.00
78876;DHT22;68253;52.506;5.486;2023-04-01T23:14:06;19.40;60.00
78876;DHT22;68253;52.506;5.486;2023-04-01T23:17:09;19.40;60.10
78876;DHT22;68253;52.506;5.486;2023-04-01T23:19:55;19.30;60.00
78876;DHT22;68253;52.506;5.486;2023-04-01T23:22:54;19.40;60.00
78876;DHT22;68253;52.506;5.486;2023-04-01T23:35:59;19.30;59.80
78876;DHT22;68253;52.506;5.486;2023-04-01T23:38:38;19.30;59.90
78876;DHT22;68253;52.506;5.486;2023-04-01T23:41:05;19.20;59.90
78876;DHT22;68253;52.506;5.486;2023-04-01T23:43:36;19.20;59.90
78876;DHT22;68253;52.506;5.486;2023-04-01T23:46:03;19.20;59.80
78876;DHT22;68253;52.506;5.486;2023-04-01T23:48:40;19.20;59.80
78876;DHT22;68253;52.506;5.486;2023-04-01T23:51:27;19.20;59.70
78876;DHT22;68253;52.506;5.486;2023-04-01T23:54:17;19.20;59.70
78876;DHT22;68253;52.506;5.486;2023-04-01T23:56:48;19.20;59.70
78876;DHT22;68253;52.506;5.486;2023-04-01T23:59:29;19.20;59.70
